createdAt,value
2022-12-28T00:01:26.515Z,8.60
2022-12-28T00:03:54.246Z,8.60
2022-12-28T00:06:23.313Z,8.60
2022-12-28T00:08:53.764Z,8.70
2022-12-28T00:11:28.049Z,8.70
2022-12-28T00:13:59.705Z,8.80
2022-12-28T00:16:26.318Z,8.90
2022-12-28T00:18:54.348Z,8.80
2022-12-28T00:21:21.116Z,8.90
2022-12-28T00:23:52.859Z,9.10
2022-12-28T00:26:20.156Z,9.20
2022-12-28T00:28:48.120Z,9.20
2022-12-28T00:31:15.282Z,9.10
2022-12-28T00:33:42.528Z,9.00
2022-12-28T00:36:12.399Z,8.90
2022-12-28T00:38:39.737Z,9.00
2022-12-28T00:41:07.421Z,9.20
2022-12-28T00:43:34.559Z,9.30
2022-12-28T00:46:01.644Z,9.20
2022-12-28T00:48:28.697Z,9.20
2022-12-28T00:51:07.694Z,9.20
2022-12-28T00:53:34.430Z,9.20
2022-12-28T00:56:06.079Z,9.20
2022-12-28T00:58:33.422Z,9.30
2022-12-28T01:01:00.648Z,9.30
2022-12-28T01:03:27.481Z,9.30
2022-12-28T01:05:54.313Z,9.40
2022-12-28T01:08:21.380Z,9.30
2022-12-28T01:10:48.068Z,9.30
2022-12-28T01:13:14.925Z,9.40
2022-12-28T01:15:41.680Z,9.50
2022-12-28T01:18:08.347Z,9.40
2022-12-28T01:20:35.416Z,9.40
2022-12-28T01:23:02.079Z,9.50
2022-12-28T01:25:28.694Z,9.60
2022-12-28T01:27:55.407Z,9.50
2022-12-28T01:30:22.085Z,9.40
2022-12-28T01:32:48.850Z,9.40
2022-12-28T01:35:15.571Z,9.30
2022-12-28T01:37:42.339Z,9.20
2022-12-28T01:40:13.715Z,9.20
2022-12-28T01:42:41.438Z,9.20
2022-12-28T01:45:18.349Z,9.10
2022-12-28T01:47:47.807Z,9.30
2022-12-28T01:50:19.506Z,9.40
2022-12-28T01:52:55.014Z,9.30
2022-12-28T01:55:25.875Z,9.20
2022-12-28T01:58:05.873Z,9.20
2022-12-28T02:00:33.380Z,9.30
2022-12-28T02:03:14.079Z,9.30
2022-12-28T02:05:46.031Z,9.40
2022-12-28T02:08:31.099Z,9.40
2022-12-28T02:10:57.879Z,9.40
2022-12-28T02:13:26.058Z,9.40
2022-12-28T02:15:52.904Z,9.40
2022-12-28T02:18:21.617Z,9.30
2022-12-28T02:21:09.849Z,9.30
2022-12-28T02:23:39.213Z,9.50
2022-12-28T02:26:36.016Z,9.50
2022-12-28T02:29:54.064Z,9.60
2022-12-28T02:32:31.402Z,9.60
2022-12-28T02:35:05.281Z,9.50
2022-12-28T02:37:38.897Z,9.40
2022-12-28T02:40:11.820Z,9.40
2022-12-28T02:42:40.459Z,9.30
2022-12-28T02:45:45.110Z,9.30
2022-12-28T02:48:30.605Z,9.40
2022-12-28T02:51:23.385Z,9.40
2022-12-28T02:53:55.989Z,9.20
2022-12-28T02:56:51.496Z,9.20
2022-12-28T02:59:28.970Z,9.20
2022-12-28T03:02:27.489Z,9.10
2022-12-28T03:05:41.425Z,9.00
2022-12-28T03:08:22.704Z,9.00
2022-12-28T03:11:09.639Z,9.10
2022-12-28T03:13:56.304Z,9.00
2022-12-28T03:16:29.339Z,8.90
2022-12-28T03:19:21.721Z,8.90
2022-12-28T03:22:08.788Z,8.90
2022-12-28T03:24:56.271Z,8.90
2022-12-28T03:27:41.801Z,8.80
2022-12-28T03:30:32.356Z,8.70
2022-12-28T03:32:59.694Z,8.70
2022-12-28T03:36:16.500Z,8.80
2022-12-28T03:38:43.196Z,8.80
2022-12-28T03:41:16.037Z,8.70
2022-12-28T03:43:51.144Z,8.80
2022-12-28T03:46:29.700Z,8.80
2022-12-28T03:48:59.383Z,8.60
2022-12-28T03:51:28.331Z,8.60
2022-12-28T03:53:55.737Z,8.50
2022-12-28T03:56:25.707Z,8.50
2022-12-28T03:58:52.987Z,8.50
2022-12-28T04:01:20.508Z,8.40
2022-12-28T04:03:47.800Z,8.40
2022-12-28T04:06:16.586Z,8.30
2022-12-28T04:08:44.587Z,8.30
2022-12-28T04:11:12.345Z,8.40
2022-12-28T04:13:39.275Z,8.40
2022-12-28T04:16:09.103Z,8.40
2022-12-28T04:18:36.080Z,8.30
2022-12-28T04:21:03.519Z,8.30
2022-12-28T04:23:32.076Z,8.30
2022-12-28T04:26:02.932Z,8.40
2022-12-28T04:28:30.626Z,8.40
2022-12-28T04:30:58.741Z,8.50
2022-12-28T04:33:27.152Z,8.60
2022-12-28T04:35:54.355Z,8.60
2022-12-28T04:38:21.451Z,8.60
2022-12-28T04:40:48.156Z,8.80
2022-12-28T04:43:14.846Z,8.80
2022-12-28T04:45:41.554Z,8.90
2022-12-28T04:48:08.361Z,8.80
2022-12-28T04:50:36.862Z,8.80
2022-12-28T04:53:03.629Z,8.90
2022-12-28T04:55:32.995Z,8.90
2022-12-28T04:58:00.599Z,9.00
2022-12-28T05:00:27.462Z,9.10
2022-12-28T05:02:54.677Z,9.10
2022-12-28T05:05:21.469Z,9.10
2022-12-28T05:07:48.267Z,9.20
2022-12-28T05:10:15.186Z,9.30
2022-12-28T05:12:41.926Z,9.20
2022-12-28T05:15:09.097Z,9.10
2022-12-28T05:17:36.291Z,9.10
2022-12-28T05:20:04.382Z,9.30
2022-12-28T05:22:34.997Z,9.30
2022-12-28T05:25:04.812Z,9.30
2022-12-28T05:27:31.569Z,9.20
2022-12-28T05:29:58.278Z,9.30
2022-12-28T05:32:24.942Z,9.30
2022-12-28T05:34:51.610Z,9.30
2022-12-28T05:37:21.957Z,9.30
2022-12-28T05:39:49.046Z,9.40
2022-12-28T05:42:15.740Z,9.30
2022-12-28T05:44:42.542Z,9.40
2022-12-28T05:47:09.287Z,9.40
2022-12-28T05:49:36.007Z,9.40
2022-12-28T05:52:02.720Z,9.50
2022-12-28T05:54:29.405Z,9.40
2022-12-28T05:56:56.140Z,9.40
2022-12-28T05:59:22.815Z,9.40
2022-12-28T06:01:49.743Z,9.20
2022-12-28T06:04:19.070Z,9.20
2022-12-28T06:06:47.428Z,9.20
2022-12-28T06:09:14.971Z,9.20
2022-12-28T06:11:41.992Z,9.30
2022-12-28T06:14:09.091Z,9.40
2022-12-28T06:16:38.713Z,9.40
2022-12-28T06:19:11.149Z,9.30
2022-12-28T06:21:40.554Z,9.30
2022-12-28T06:24:09.069Z,9.30
2022-12-28T06:26:37.652Z,9.20
2022-12-28T06:29:04.848Z,9.20
2022-12-28T06:31:34.445Z,9.20
2022-12-28T06:34:02.787Z,9.30
2022-12-28T06:36:32.657Z,9.30
2022-12-28T06:39:00.553Z,9.40
2022-12-28T06:41:28.640Z,9.30
2022-12-28T06:43:56.332Z,9.30
2022-12-28T06:46:24.940Z,9.30
2022-12-28T06:48:51.978Z,9.30
2022-12-28T06:51:21.692Z,9.30
2022-12-28T06:53:50.032Z,9.30
2022-12-28T06:56:18.559Z,9.20
2022-12-28T06:58:46.620Z,9.30
2022-12-28T07:01:17.862Z,9.40
2022-12-28T07:03:46.008Z,9.40
2022-12-28T07:06:14.182Z,9.40
2022-12-28T07:08:41.268Z,9.40
2022-12-28T07:11:19.790Z,9.30
2022-12-28T07:13:46.826Z,9.40
2022-12-28T07:16:15.650Z,9.50
2022-12-28T07:18:42.723Z,9.40
2022-12-28T07:21:16.787Z,9.40
2022-12-28T07:23:43.652Z,9.40
2022-12-28T07:26:20.528Z,9.50
2022-12-28T07:28:48.969Z,9.50
2022-12-28T07:31:21.404Z,9.50
2022-12-28T07:33:49.345Z,9.60
2022-12-28T07:36:18.105Z,9.60
2022-12-28T07:38:44.896Z,9.60
2022-12-28T07:41:13.033Z,9.60
2022-12-28T07:43:40.227Z,9.60
2022-12-28T07:46:08.764Z,9.60
2022-12-28T07:48:37.136Z,9.70
2022-12-28T07:51:08.433Z,9.70
2022-12-28T07:53:35.130Z,9.70
2022-12-28T07:56:01.971Z,9.70
2022-12-28T07:58:28.721Z,9.70
2022-12-28T08:00:55.658Z,9.70
2022-12-28T08:03:22.728Z,9.70
2022-12-28T08:05:49.524Z,9.70
2022-12-28T08:08:16.335Z,9.60
2022-12-28T08:10:43.252Z,9.70
2022-12-28T08:13:10.080Z,9.80
2022-12-28T08:15:36.788Z,9.80
2022-12-28T08:18:03.690Z,9.80
2022-12-28T08:20:30.459Z,9.80
2022-12-28T08:22:57.319Z,9.80
2022-12-28T08:25:24.096Z,9.70
2022-12-28T08:27:50.945Z,9.60
2022-12-28T08:30:17.760Z,9.50
2022-12-28T08:32:44.577Z,9.40
2022-12-28T08:35:11.519Z,9.40
2022-12-28T08:37:38.284Z,9.50
2022-12-28T08:40:05.752Z,9.50
2022-12-28T08:42:32.545Z,9.40
2022-12-28T08:44:59.304Z,9.20
2022-12-28T08:47:26.340Z,9.10
2022-12-28T08:49:53.043Z,9.10
2022-12-28T08:52:19.708Z,9.10
2022-12-28T08:54:53.427Z,9.30
2022-12-28T08:57:20.160Z,9.20
2022-12-28T08:59:46.890Z,9.30
2022-12-28T09:02:13.854Z,9.20
2022-12-28T09:04:41.111Z,9.30
2022-12-28T09:07:07.771Z,9.20
2022-12-28T09:09:35.175Z,9.20
2022-12-28T09:12:01.941Z,9.20
2022-12-28T09:14:28.716Z,9.30
2022-12-28T09:16:55.522Z,9.30
2022-12-28T09:19:22.680Z,9.50
2022-12-28T09:21:52.274Z,9.50
2022-12-28T09:24:19.285Z,9.70
2022-12-28T09:26:46.127Z,9.70
2022-12-28T09:29:14.145Z,9.60
2022-12-28T09:31:41.815Z,9.80
2022-12-28T09:36:59.533Z,10.00
2022-12-28T09:39:26.310Z,10.00
2022-12-28T09:41:57.697Z,10.10
2022-12-28T09:44:30.332Z,10.10
2022-12-28T09:47:06.759Z,10.00
2022-12-28T09:49:42.066Z,10.00
2022-12-28T09:52:14.316Z,10.00
2022-12-28T09:54:41.851Z,10.10
2022-12-28T09:57:15.210Z,10.30
2022-12-28T09:59:42.775Z,10.50
2022-12-28T10:02:30.142Z,10.50
2022-12-28T10:04:57.218Z,10.50
2022-12-28T10:07:24.231Z,10.50
2022-12-28T10:09:51.377Z,10.60
2022-12-28T10:12:21.292Z,10.60
2022-12-28T10:14:49.432Z,10.60
2022-12-28T10:17:20.361Z,10.70
2022-12-28T10:19:48.280Z,10.80
2022-12-28T10:22:19.767Z,10.90
2022-12-28T10:24:47.861Z,11.10
2022-12-28T10:27:34.788Z,11.20
2022-12-28T10:30:06.678Z,11.30
2022-12-28T10:33:01.758Z,11.50
2022-12-28T10:35:37.325Z,11.60
2022-12-28T10:38:07.625Z,11.80
2022-12-28T10:40:38.070Z,11.70
2022-12-28T10:43:10.542Z,11.70
2022-12-28T10:45:46.186Z,11.80
2022-12-28T10:48:19.996Z,11.90
2022-12-28T10:50:55.581Z,12.10
2022-12-28T10:53:32.669Z,12.10
2022-12-28T10:56:23.972Z,11.90
2022-12-28T10:59:15.042Z,11.80
2022-12-28T11:01:43.650Z,11.90
2022-12-28T11:04:21.398Z,11.80
2022-12-28T11:07:00.384Z,11.90
2022-12-28T11:09:35.287Z,11.90
2022-12-28T11:12:24.599Z,11.80
2022-12-28T11:14:56.307Z,11.80
2022-12-28T11:17:28.571Z,11.90
2022-12-28T11:20:06.194Z,12.00
2022-12-28T11:22:33.826Z,12.10
2022-12-28T11:25:02.568Z,12.20
2022-12-28T11:27:29.468Z,12.10
2022-12-28T11:29:57.464Z,12.10
2022-12-28T11:32:26.098Z,12.20
2022-12-28T11:34:55.378Z,12.30
2022-12-28T11:37:22.141Z,12.20
2022-12-28T11:39:50.859Z,12.10
2022-12-28T11:42:41.249Z,12.20
2022-12-28T11:45:16.865Z,12.30
2022-12-28T11:47:43.743Z,12.20
2022-12-28T11:50:39.599Z,12.20
2022-12-28T11:53:21.310Z,12.20
2022-12-28T11:55:59.576Z,12.40
2022-12-28T11:58:35.785Z,12.30
2022-12-28T12:01:02.680Z,12.50
2022-12-28T12:03:57.278Z,12.60
2022-12-28T12:06:42.478Z,12.70
2022-12-28T12:09:21.552Z,12.80
2022-12-28T12:11:58.944Z,12.80
2022-12-28T12:14:36.323Z,13.00
2022-12-28T12:17:34.754Z,13.70
2022-12-28T12:20:43.146Z,14.10
2022-12-28T12:23:18.794Z,13.90
2022-12-28T12:25:48.468Z,13.50
2022-12-28T12:28:31.347Z,13.30
2022-12-28T12:30:58.810Z,13.00
2022-12-28T12:33:30.480Z,12.80
2022-12-28T12:36:06.170Z,12.80
2022-12-28T12:38:49.221Z,12.70
2022-12-28T12:41:59.767Z,12.60
2022-12-28T12:44:52.477Z,12.50
2022-12-28T12:48:04.480Z,12.50
2022-12-28T12:50:45.537Z,12.50
2022-12-28T12:53:27.307Z,12.60
2022-12-28T12:56:12.472Z,12.50
2022-12-28T12:58:56.196Z,12.50
2022-12-28T13:01:36.937Z,12.30
2022-12-28T13:04:14.750Z,12.10
2022-12-28T13:06:42.813Z,11.90
2022-12-28T13:09:16.951Z,11.80
2022-12-28T13:11:43.951Z,11.60
2022-12-28T13:14:20.034Z,11.60
2022-12-28T13:16:58.239Z,11.50
2022-12-28T13:19:28.151Z,11.40
2022-12-28T13:21:57.879Z,11.50
2022-12-28T13:24:35.177Z,11.60
2022-12-28T13:27:07.668Z,11.60
2022-12-28T13:29:39.951Z,11.80
2022-12-28T13:32:23.228Z,11.80
2022-12-28T13:34:50.890Z,11.70
2022-12-28T13:37:18.985Z,11.60
2022-12-28T13:39:47.854Z,11.50
2022-12-28T13:42:22.078Z,11.50
2022-12-28T13:44:53.722Z,11.40
2022-12-28T13:47:38.488Z,11.40
2022-12-28T13:50:17.397Z,11.20
2022-12-28T13:52:50.554Z,11.00
2022-12-28T13:55:24.938Z,11.00
2022-12-28T13:57:59.764Z,11.10
2022-12-28T14:00:29.841Z,11.20
2022-12-28T14:02:58.673Z,11.10
2022-12-28T14:05:30.326Z,11.00
2022-12-28T14:07:59.429Z,10.90
2022-12-28T14:10:27.312Z,10.80
2022-12-28T14:12:55.018Z,10.80
2022-12-28T14:15:22.586Z,10.70
2022-12-28T14:17:51.437Z,10.60
2022-12-28T14:20:18.434Z,10.50
2022-12-28T14:22:45.431Z,10.60
2022-12-28T14:25:15.376Z,10.50
2022-12-28T14:27:57.034Z,10.50
2022-12-28T14:30:31.220Z,10.40
2022-12-28T14:33:11.565Z,10.50
2022-12-28T14:35:49.029Z,10.40
2022-12-28T14:38:22.814Z,10.30
2022-12-28T14:40:58.376Z,10.20
2022-12-28T14:43:26.606Z,10.40
2022-12-28T14:46:05.021Z,10.40
2022-12-28T14:48:37.492Z,10.40
2022-12-28T14:51:17.627Z,10.50
2022-12-28T14:53:45.517Z,10.40
2022-12-28T14:56:19.580Z,10.50
2022-12-28T14:58:55.262Z,10.50
2022-12-28T15:01:22.514Z,10.40
2022-12-28T15:03:49.348Z,10.50
2022-12-28T15:06:16.468Z,10.60
2022-12-28T15:08:50.926Z,10.60
2022-12-28T15:11:19.260Z,10.50
2022-12-28T15:13:46.562Z,10.30
2022-12-28T15:16:14.375Z,10.30
2022-12-28T15:18:44.985Z,10.20
2022-12-28T15:21:21.165Z,10.10
2022-12-28T15:23:52.544Z,10.10
2022-12-28T15:26:20.004Z,10.10
2022-12-28T15:28:46.800Z,10.20
2022-12-28T15:31:17.177Z,10.10
2022-12-28T15:33:44.863Z,10.00
2022-12-28T15:36:17.587Z,10.10
2022-12-28T15:38:46.574Z,10.10
2022-12-28T15:41:33.054Z,10.10
2022-12-28T15:44:00.111Z,10.10
2022-12-28T15:46:27.004Z,10.30
2022-12-28T15:48:53.668Z,10.30
2022-12-28T15:51:20.612Z,10.40
2022-12-28T15:53:47.348Z,10.60
2022-12-28T15:56:32.772Z,10.60
2022-12-28T15:59:00.849Z,10.60
2022-12-28T16:01:29.685Z,10.70
2022-12-28T16:03:59.185Z,10.70
2022-12-28T16:06:27.862Z,10.70
2022-12-28T16:08:56.638Z,10.80
2022-12-28T16:11:24.112Z,10.80
2022-12-28T16:13:52.872Z,10.70
2022-12-28T16:16:21.279Z,10.80
2022-12-28T16:18:48.693Z,10.70
2022-12-28T16:21:16.196Z,10.70
2022-12-28T16:23:45.225Z,10.60
2022-12-28T16:26:13.680Z,10.60
2022-12-28T16:28:40.593Z,10.60
2022-12-28T16:31:08.427Z,10.60
2022-12-28T16:33:35.684Z,10.50
2022-12-28T16:36:02.358Z,10.50
2022-12-28T16:38:29.250Z,10.60
2022-12-28T16:40:57.149Z,10.60
2022-12-28T16:43:24.272Z,10.70
2022-12-28T16:45:51.120Z,10.70
2022-12-28T16:48:18.388Z,10.70
2022-12-28T16:50:45.101Z,10.70
2022-12-28T16:53:12.732Z,10.60
2022-12-28T16:55:42.242Z,10.70
2022-12-28T16:58:09.867Z,10.70
2022-12-28T17:00:36.713Z,10.70
2022-12-28T17:03:03.776Z,10.70
2022-12-28T17:05:34.986Z,10.40
2022-12-28T17:08:03.039Z,10.20
2022-12-28T17:10:30.538Z,10.00
2022-12-28T17:12:57.821Z,9.90
2022-12-28T17:15:24.811Z,9.90
2022-12-28T17:17:51.642Z,9.90
2022-12-28T17:20:18.631Z,10.00
2022-12-28T17:22:45.363Z,10.00
2022-12-28T17:25:12.189Z,9.80
2022-12-28T17:27:38.886Z,9.90
2022-12-28T17:30:06.042Z,10.00
2022-12-28T17:32:33.653Z,10.10
2022-12-28T17:35:00.344Z,10.20
2022-12-28T17:37:27.103Z,10.00
2022-12-28T17:39:53.890Z,9.90
2022-12-28T17:42:20.656Z,9.90
2022-12-28T17:44:48.528Z,9.80
2022-12-28T17:47:15.472Z,9.60
2022-12-28T17:49:42.465Z,9.50
2022-12-28T17:52:09.369Z,9.70
2022-12-28T17:54:36.182Z,9.70
2022-12-28T17:57:02.913Z,9.70
2022-12-28T17:59:29.861Z,9.60
2022-12-28T18:01:57.304Z,9.70
2022-12-28T18:04:24.146Z,9.80
2022-12-28T18:06:50.856Z,9.90
2022-12-28T18:09:21.109Z,10.00
2022-12-28T18:11:52.366Z,10.10
2022-12-28T18:14:19.453Z,10.10
2022-12-28T18:16:46.141Z,9.80
2022-12-28T18:19:13.156Z,9.70
2022-12-28T18:21:41.586Z,9.90
2022-12-28T18:24:13.068Z,10.10
2022-12-28T18:26:40.041Z,10.10
2022-12-28T18:29:06.960Z,10.00
2022-12-28T18:31:33.948Z,9.90
2022-12-28T18:34:03.332Z,9.80
2022-12-28T18:36:30.282Z,9.90
2022-12-28T18:38:56.961Z,10.00
2022-12-28T18:41:25.542Z,10.00
2022-12-28T18:43:56.949Z,10.10
2022-12-28T18:46:23.778Z,10.20
2022-12-28T18:48:50.516Z,10.20
2022-12-28T18:51:18.404Z,10.20
2022-12-28T18:53:45.785Z,10.10
2022-12-28T18:56:18.575Z,10.10
2022-12-28T18:58:49.653Z,10.10
2022-12-28T19:01:55.998Z,10.00
2022-12-28T19:04:10.328Z,10.20
2022-12-28T19:06:38.010Z,10.20
2022-12-28T19:09:06.821Z,10.20
2022-12-28T19:11:34.309Z,10.40
2022-12-28T19:14:03.067Z,10.30
2022-12-28T19:16:31.904Z,10.30
2022-12-28T19:19:00.181Z,10.30
2022-12-28T19:21:30.912Z,10.20
2022-12-28T19:24:03.312Z,10.30
2022-12-28T19:26:31.485Z,10.30
2022-12-28T19:28:58.682Z,10.20
2022-12-28T19:31:26.011Z,10.20
2022-12-28T19:33:52.890Z,10.30
2022-12-28T19:36:19.878Z,10.30
2022-12-28T19:38:47.016Z,10.20
2022-12-28T19:41:15.519Z,10.40
2022-12-28T19:43:43.818Z,10.50
2022-12-28T19:46:12.765Z,10.60
2022-12-28T19:48:39.722Z,10.60
2022-12-28T19:51:07.037Z,10.60
2022-12-28T19:53:34.176Z,10.70
2022-12-28T19:56:16.275Z,10.70
2022-12-28T19:58:44.653Z,10.70
2022-12-28T20:01:14.281Z,10.70
2022-12-28T20:03:42.087Z,10.70
2022-12-28T20:06:18.299Z,10.70
2022-12-28T20:08:46.628Z,10.60
2022-12-28T20:11:13.680Z,10.60
2022-12-28T20:13:41.126Z,10.60
2022-12-28T20:16:09.201Z,10.70
2022-12-28T20:18:36.251Z,10.70
2022-12-28T20:21:21.979Z,10.70
2022-12-28T20:23:49.617Z,10.50
2022-12-28T20:26:17.571Z,10.50
2022-12-28T20:28:44.970Z,10.40
2022-12-28T20:31:14.120Z,10.50
2022-12-28T20:33:42.000Z,10.50
2022-12-28T20:36:12.354Z,10.60
2022-12-28T20:38:39.352Z,10.60
2022-12-28T20:41:32.165Z,10.60
2022-12-28T20:44:00.412Z,10.60
2022-12-28T20:46:27.854Z,10.60
2022-12-28T20:48:55.007Z,10.50
2022-12-28T20:51:21.746Z,10.50
2022-12-28T20:53:48.639Z,10.50
2022-12-28T20:56:15.400Z,10.60
2022-12-28T20:58:42.177Z,10.60
2022-12-28T21:01:11.865Z,10.60
2022-12-28T21:03:39.305Z,10.60
2022-12-28T21:06:06.772Z,10.60
2022-12-28T21:08:33.708Z,10.60
2022-12-28T21:11:01.158Z,10.60
2022-12-28T21:13:28.397Z,10.60
2022-12-28T21:15:55.683Z,10.60
2022-12-28T21:18:23.161Z,10.60
2022-12-28T21:20:55.494Z,10.30
2022-12-28T21:23:22.763Z,10.20
2022-12-28T21:25:49.792Z,10.30
2022-12-28T21:28:16.660Z,10.40
2022-12-28T21:30:43.387Z,10.40
2022-12-28T21:33:10.528Z,10.50
2022-12-28T21:35:37.290Z,10.50
2022-12-28T21:38:05.190Z,10.40
2022-12-28T21:40:32.269Z,10.30
2022-12-28T21:42:58.955Z,10.10
2022-12-28T21:45:25.732Z,10.30
2022-12-28T21:47:52.723Z,10.30
2022-12-28T21:50:19.539Z,10.30
2022-12-28T21:52:46.383Z,10.30
2022-12-28T21:55:31.529Z,10.40
2022-12-28T21:57:59.756Z,10.40
2022-12-28T22:00:45.351Z,10.40
2022-12-28T22:03:30.541Z,10.30
2022-12-28T22:06:06.172Z,10.00
2022-12-28T22:08:51.698Z,10.10
2022-12-28T22:11:38.559Z,10.10
2022-12-28T22:14:06.278Z,10.20
2022-12-28T22:16:34.445Z,10.30
2022-12-28T22:19:03.894Z,10.30
2022-12-28T22:21:31.408Z,10.30
2022-12-28T22:23:58.208Z,10.20
2022-12-28T22:26:25.289Z,10.00
2022-12-28T22:28:52.062Z,9.80
2022-12-28T22:31:18.866Z,9.80
2022-12-28T22:33:46.155Z,9.90
2022-12-28T22:36:15.524Z,10.00
2022-12-28T22:38:42.289Z,10.00
2022-12-28T22:41:09.081Z,9.80
2022-12-28T22:43:35.891Z,9.80
2022-12-28T22:46:11.373Z,9.70
2022-12-28T22:48:38.578Z,9.70
2022-12-28T22:51:10.886Z,9.70
2022-12-28T22:53:38.045Z,9.70
2022-12-28T22:56:07.866Z,9.60
2022-12-28T22:58:34.617Z,9.60
2022-12-28T23:01:08.359Z,9.60
2022-12-28T23:03:38.569Z,9.70
2022-12-28T23:06:06.687Z,9.80
2022-12-28T23:08:33.783Z,9.90
2022-12-28T23:11:02.758Z,9.90
2022-12-28T23:13:32.093Z,9.80
2022-12-28T23:16:02.323Z,9.70
2022-12-28T23:18:48.301Z,9.70
2022-12-28T23:21:39.917Z,9.70
2022-12-28T23:24:30.465Z,9.60
2022-12-28T23:27:17.192Z,9.80
2022-12-28T23:29:44.555Z,9.60
2022-12-28T23:32:11.516Z,9.50
2022-12-28T23:34:38.217Z,9.50
2022-12-28T23:37:04.980Z,9.60
2022-12-28T23:39:31.737Z,9.80
2022-12-28T23:41:58.525Z,9.90
2022-12-28T23:44:26.491Z,10.00
2022-12-28T23:46:59.023Z,9.80
2022-12-28T23:49:27.056Z,9.70
2022-12-28T23:51:53.882Z,9.60
2022-12-28T23:54:21.048Z,9.60
2022-12-28T23:56:51.821Z,9.70
2022-12-28T23:59:18.490Z,9.90
